sensor_id;sensor_type;location;lat;lon;timestamp;pressure;altitude;pressure_sealevel;temperature;humidity
48652;BME280;34442;52.362;-1.302;2022-08-21T00:00:19;100187.88;;;17.51;100.00
48652;BME280;34442;52.362;-1.302;2022-08-21T00:02:50;100192.50;;;17.51;100.00
48652;BME280;34442;52.362;-1.302;2022-08-21T00:05:18;100195.72;;;17.48;100.00
48652;BME280;34442;52.362;-1.302;2022-08-21T00:07:44;100183.22;;;17.47;100.00
48652;BME280;34442;52.362;-1.302;2022-08-21T00:10:11;100187.53;;;17.43;100.00
48652;BME280;34442;52.362;-1.302;2022-08-21T00:12:37;100184.25;;;17.41;100.00
48652;BME280;34442;52.362;-1.302;2022-08-21T00:15:06;100185.00;;;17.36;100.00
48652;BME280;34442;52.362;-1.302;2022-08-21T00:17:33;100178.75;;;17.35;100.00
48652;BME280;34442;52.362;-1.302;2022-08-21T00:19:59;100170.28;;;17.32;100.00
48652;BME280;34442;52.362;-1.302;2022-08-21T00:22:25;100168.09;;;17.29;100.00
48652;BME280;34442;52.362;-1.302;2022-08-21T00:24:51;100165.88;;;17.26;100.00
48652;BME280;34442;52.362;-1.302;2022-08-21T00:27:17;100154.44;;;17.24;100.00
48652;BME280;34442;52.362;-1.302;2022-08-21T00:29:43;100160.94;;;17.23;100.00
48652;BME280;34442;52.362;-1.302;2022-08-21T00:32:09;100168.56;;;17.21;100.00
48652;BME280;34442;52.362;-1.302;2022-08-21T00:34:35;100168.78;;;17.19;100.00
48652;BME280;34442;52.362;-1.302;2022-08-21T00:37:01;100168.47;;;17.16;100.00
48652;BME280;34442;52.362;-1.302;2022-08-21T00:39:27;100165.75;;;17.16;100.00
48652;BME280;34442;52.362;-1.302;2022-08-21T00:41:53;100160.59;;;17.14;100.00
48652;BME280;34442;52.362;-1.302;2022-08-21T00:44:19;100159.78;;;17.14;100.00
48652;BME280;34442;52.362;-1.302;2022-08-21T00:46:45;100153.72;;;17.06;100.00
48652;BME280;34442;52.362;-1.302;2022-08-21T00:49:12;100148.56;;;17.05;100.00
48652;BME280;34442;52.362;-1.302;2022-08-21T00:51:48;100150.19;;;17.06;100.00
48652;BME280;34442;52.362;-1.302;2022-08-21T00:54:15;100154.22;;;17.03;100.00
48652;BME280;34442;52.362;-1.302;2022-08-21T00:56:42;100153.09;;;16.99;100.00
48652;BME280;34442;52.362;-1.302;2022-08-21T00:59:09;100147.09;;;16.97;100.00
48652;BME280;34442;52.362;-1.302;2022-08-21T01:01:35;100151.97;;;16.95;100.00
48652;BME280;34442;52.362;-1.302;2022-08-21T01:04:02;100148.69;;;16.93;100.00
48652;BME280;34442;52.362;-1.302;2022-08-21T01:06:28;100148.94;;;16.92;100.00
48652;BME280;34442;52.362;-1.302;2022-08-21T01:08:54;100148.94;;;16.92;100.00
48652;BME280;34442;52.362;-1.302;2022-08-21T01:11:20;100154.88;;;16.89;100.00
48652;BME280;34442;52.362;-1.302;2022-08-21T01:13:47;100157.59;;;16.89;100.00
48652;BME280;34442;52.362;-1.302;2022-08-21T01:16:17;100147.19;;;16.80;100.00
48652;BME280;34442;52.362;-1.302;2022-08-21T01:18:45;100148.25;;;16.79;100.00
48652;BME280;34442;52.362;-1.302;2022-08-21T01:21:17;100149.03;;;16.75;100.00
48652;BME280;34442;52.362;-1.302;2022-08-21T01:23:50;100138.88;;;16.70;100.00
48652;BME280;34442;52.362;-1.302;2022-08-21T01:26:21;100138.88;;;16.70;100.00
48652;BME280;34442;52.362;-1.302;2022-08-21T01:29:00;100141.03;;;16.68;100.00
48652;BME280;34442;52.362;-1.302;2022-08-21T01:31:28;100148.03;;;16.64;100.00
48652;BME280;34442;52.362;-1.302;2022-08-21T01:33:55;100139.72;;;16.71;100.00
48652;BME280;34442;52.362;-1.302;2022-08-21T01:36:22;100151.97;;;16.73;100.00
48652;BME280;34442;52.362;-1.302;2022-08-21T01:38:49;100159.53;;;16.71;100.00
48652;BME280;34442;52.362;-1.302;2022-08-21T01:41:16;100158.13;;;16.69;100.00
48652;BME280;34442;52.362;-1.302;2022-08-21T01:43:43;100161.44;;;16.71;100.00
48652;BME280;34442;52.362;-1.302;2022-08-21T01:46:09;100157.50;;;16.61;100.00
48652;BME280;34442;52.362;-1.302;2022-08-21T01:48:36;100154.72;;;16.56;100.00
48652;BME280;34442;52.362;-1.302;2022-08-21T01:51:03;100160.59;;;16.48;100.00
48652;BME280;34442;52.362;-1.302;2022-08-21T01:53:30;100155.16;;;16.48;100.00
48652;BME280;34442;52.362;-1.302;2022-08-21T01:55:56;100150.53;;;16.49;100.00
48652;BME280;34442;52.362;-1.302;2022-08-21T01:58:22;100143.66;;;16.41;100.00
48652;BME280;34442;52.362;-1.302;2022-08-21T02:00:48;100145.56;;;16.41;100.00
48652;BME280;34442;52.362;-1.302;2022-08-21T02:03:15;100154.50;;;16.41;100.00
48652;BME280;34442;52.362;-1.302;2022-08-21T02:05:41;100148.53;;;16.39;100.00
48652;BME280;34442;52.362;-1.302;2022-08-21T02:08:07;100157.75;;;16.38;100.00
48652;BME280;34442;52.362;-1.302;2022-08-21T02:10:33;100157.97;;;16.36;100.00
48652;BME280;34442;52.362;-1.302;2022-08-21T02:13:00;100150.91;;;16.35;100.00
48652;BME280;34442;52.362;-1.302;2022-08-21T02:15:28;100157.16;;;16.36;100.00
48652;BME280;34442;52.362;-1.302;2022-08-21T02:17:57;100153.94;;;16.39;100.00
48652;BME280;34442;52.362;-1.302;2022-08-21T02:20:34;100158.31;;;16.40;100.00
48652;BME280;34442;52.362;-1.302;2022-08-21T02:23:00;100155.03;;;16.38;100.00
48652;BME280;34442;52.362;-1.302;2022-08-21T02:25:27;100160.47;;;16.38;100.00
48652;BME280;34442;52.362;-1.302;2022-08-21T02:27:54;100157.00;;;16.43;100.00
48652;BME280;34442;52.362;-1.302;2022-08-21T02:30:24;100163.47;;;16.42;100.00
48652;BME280;34442;52.362;-1.302;2022-08-21T02:32:51;100155.31;;;16.42;100.00
48652;BME280;34442;52.362;-1.302;2022-08-21T02:35:17;100154.78;;;16.40;100.00
48652;BME280;34442;52.362;-1.302;2022-08-21T02:37:49;100150.97;;;16.41;100.00
48652;BME280;34442;52.362;-1.302;2022-08-21T02:40:17;100145.81;;;16.39;100.00
48652;BME280;34442;52.362;-1.302;2022-08-21T02:42:44;100136.75;;;16.33;100.00
48652;BME280;34442;52.362;-1.302;2022-08-21T02:45:12;100143.09;;;16.39;100.00
48652;BME280;34442;52.362;-1.302;2022-08-21T02:47:38;100145.50;;;16.35;100.00
48652;BME280;34442;52.362;-1.302;2022-08-21T02:50:06;100143.59;;;16.36;100.00
48652;BME280;34442;52.362;-1.302;2022-08-21T02:52:32;100141.97;;;16.35;100.00
48652;BME280;34442;52.362;-1.302;2022-08-21T02:55:00;100142.28;;;16.38;100.00
48652;BME280;34442;52.362;-1.302;2022-08-21T02:57:26;100137.91;;;16.37;100.00
48652;BME280;34442;52.362;-1.302;2022-08-21T02:59:52;100134.31;;;16.32;100.00
48652;BME280;34442;52.362;-1.302;2022-08-21T03:02:18;100134.31;;;16.32;100.00
48652;BME280;34442;52.362;-1.302;2022-08-21T03:04:44;100131.88;;;16.30;100.00
48652;BME280;34442;52.362;-1.302;2022-08-21T03:07:10;100124.47;;;16.26;100.00
48652;BME280;34442;52.362;-1.302;2022-08-21T03:09:36;100121.50;;;16.27;100.00
48652;BME280;34442;52.362;-1.302;2022-08-21T03:12:03;100117.72;;;16.28;100.00
48652;BME280;34442;52.362;-1.302;2022-08-21T03:14:29;100120.09;;;16.25;100.00
48652;BME280;34442;52.362;-1.302;2022-08-21T03:16:55;100125.78;;;16.23;100.00
48652;BME280;34442;52.362;-1.302;2022-08-21T03:19:21;100121.13;;;16.19;100.00
48652;BME280;34442;52.362;-1.302;2022-08-21T03:21:47;100123.00;;;16.18;100.00
48652;BME280;34442;52.362;-1.302;2022-08-21T03:24:13;100114.28;;;16.16;100.00
48652;BME280;34442;52.362;-1.302;2022-08-21T03:26:39;100121.59;;;16.16;100.00
48652;BME280;34442;52.362;-1.302;2022-08-21T03:29:05;100118.91;;;16.16;100.00
48652;BME280;34442;52.362;-1.302;2022-08-21T03:31:33;100109.19;;;16.20;100.00
48652;BME280;34442;52.362;-1.302;2022-08-21T03:33:59;100108.63;;;16.18;100.00
48652;BME280;34442;52.362;-1.302;2022-08-21T03:36:24;100117.00;;;16.16;100.00
48652;BME280;34442;52.362;-1.302;2022-08-21T03:38:51;100119.16;;;16.14;100.00
48652;BME280;34442;52.362;-1.302;2022-08-21T03:41:17;100128.66;;;16.17;100.00
48652;BME280;34442;52.362;-1.302;2022-08-21T03:43:43;100118.56;;;16.12;100.00
48652;BME280;34442;52.362;-1.302;2022-08-21T03:46:09;100115.31;;;16.10;100.00
48652;BME280;34442;52.362;-1.302;2022-08-21T03:48:38;100120.72;;;16.10;100.00
48652;BME280;34442;52.362;-1.302;2022-08-21T03:51:05;100112.00;;;16.08;100.00
48652;BME280;34442;52.362;-1.302;2022-08-21T03:53:32;100108.91;;;15.99;100.00
48652;BME280;34442;52.362;-1.302;2022-08-21T03:55:58;100106.44;;;15.98;100.00
48652;BME280;34442;52.362;-1.302;2022-08-21T03:58:26;100106.13;;;15.94;100.00
48652;BME280;34442;52.362;-1.302;2022-08-21T04:00:58;100109.16;;;15.98;100.00
48652;BME280;34442;52.362;-1.302;2022-08-21T04:03:25;100109.97;;;15.98;100.00
48652;BME280;34442;52.362;-1.302;2022-08-21T04:05:51;100118.38;;;15.97;100.00
48652;BME280;34442;52.362;-1.302;2022-08-21T04:08:18;100112.34;;;15.95;100.00
48652;BME280;34442;52.362;-1.302;2022-08-21T04:10:46;100105.53;;;15.92;100.00
48652;BME280;34442;52.362;-1.302;2022-08-21T04:13:13;100116.38;;;15.92;100.00
48652;BME280;34442;52.362;-1.302;2022-08-21T04:15:40;100113.50;;;15.99;100.00
48652;BME280;34442;52.362;-1.302;2022-08-21T04:18:07;100118.13;;;15.98;100.00
48652;BME280;34442;52.362;-1.302;2022-08-21T04:20:34;100112.94;;;15.97;100.00
48652;BME280;34442;52.362;-1.302;2022-08-21T04:23:02;100114.59;;;15.98;100.00
48652;BME280;34442;52.362;-1.302;2022-08-21T04:25:28;100114.09;;;16.01;100.00
48652;BME280;34442;52.362;-1.302;2022-08-21T04:27:54;100115.56;;;15.92;100.00
48652;BME280;34442;52.362;-1.302;2022-08-21T04:30:21;100117.78;;;15.95;100.00
48652;BME280;34442;52.362;-1.302;2022-08-21T04:32:49;100120.22;;;15.96;100.00
48652;BME280;34442;52.362;-1.302;2022-08-21T04:35:19;100124.34;;;15.99;100.00
48652;BME280;34442;52.362;-1.302;2022-08-21T04:37:45;100127.31;;;15.97;100.00
48652;BME280;34442;52.362;-1.302;2022-08-21T04:40:12;100132.22;;;16.00;100.00
48652;BME280;34442;52.362;-1.302;2022-08-21T04:42:53;100133.06;;;16.01;100.00
48652;BME280;34442;52.362;-1.302;2022-08-21T04:45:26;100137.16;;;16.03;100.00
48652;BME280;34442;52.362;-1.302;2022-08-21T04:47:55;100134.72;;;16.02;100.00
48652;BME280;34442;52.362;-1.302;2022-08-21T04:50:45;100139.53;;;16.00;100.00
48652;BME280;34442;52.362;-1.302;2022-08-21T04:53:18;100148.66;;;16.10;100.00
48652;BME280;34442;52.362;-1.302;2022-08-21T04:55:47;100152.44;;;16.09;100.00
48652;BME280;34442;52.362;-1.302;2022-08-21T04:58:16;100149.16;;;16.07;100.00
48652;BME280;34442;52.362;-1.302;2022-08-21T05:00:46;100143.91;;;16.01;100.00
48652;BME280;34442;52.362;-1.302;2022-08-21T05:03:14;100154.34;;;16.09;100.00
48652;BME280;34442;52.362;-1.302;2022-08-21T05:05:42;100155.81;;;16.00;100.00
48652;BME280;34442;52.362;-1.302;2022-08-21T05:08:12;100162.97;;;16.06;100.00
48652;BME280;34442;52.362;-1.302;2022-08-21T05:10:40;100153.69;;;16.02;100.00
48652;BME280;34442;52.362;-1.302;2022-08-21T05:13:06;100161.34;;;16.05;100.00
48652;BME280;34442;52.362;-1.302;2022-08-21T05:15:32;100165.09;;;16.04;100.00
48652;BME280;34442;52.362;-1.302;2022-08-21T05:17:58;100172.66;;;16.02;100.00
48652;BME280;34442;52.362;-1.302;2022-08-21T05:20:24;100163.78;;;16.06;100.00
48652;BME280;34442;52.362;-1.302;2022-08-21T05:22:50;100171.84;;;16.01;100.00
48652;BME280;34442;52.362;-1.302;2022-08-21T05:25:16;100170.03;;;16.07;100.00
48652;BME280;34442;52.362;-1.302;2022-08-21T05:27:42;100167.06;;;16.08;100.00
48652;BME280;34442;52.362;-1.302;2022-08-21T05:30:09;100180.72;;;16.13;100.00
48652;BME280;34442;52.362;-1.302;2022-08-21T05:32:36;100175.03;;;16.15;100.00
48652;BME280;34442;52.362;-1.302;2022-08-21T05:35:04;100173.47;;;16.19;100.00
48652;BME280;34442;52.362;-1.302;2022-08-21T05:37:31;100174.63;;;16.23;100.00
48652;BME280;34442;52.362;-1.302;2022-08-21T05:39:59;100181.34;;;16.21;100.00
48652;BME280;34442;52.362;-1.302;2022-08-21T05:42:25;100184.31;;;16.19;100.00
48652;BME280;34442;52.362;-1.302;2022-08-21T05:44:51;100183.63;;;16.29;100.00
48652;BME280;34442;52.362;-1.302;2022-08-21T05:47:17;100180.69;;;16.30;100.00
48652;BME280;34442;52.362;-1.302;2022-08-21T05:49:43;100181.03;;;16.34;100.00
48652;BME280;34442;52.362;-1.302;2022-08-21T05:52:09;100179.69;;;16.36;100.00
48652;BME280;34442;52.362;-1.302;2022-08-21T05:54:36;100185.69;;;16.38;100.00
48652;BME280;34442;52.362;-1.302;2022-08-21T05:57:03;100187.31;;;16.40;100.00
48652;BME280;34442;52.362;-1.302;2022-08-21T05:59:29;100192.75;;;16.40;100.00
48652;BME280;34442;52.362;-1.302;2022-08-21T06:01:55;100181.63;;;16.41;100.00
48652;BME280;34442;52.362;-1.302;2022-08-21T06:04:21;100180.81;;;16.41;100.00
48652;BME280;34442;52.362;-1.302;2022-08-21T06:06:47;100188.16;;;16.40;100.00
48652;BME280;34442;52.362;-1.302;2022-08-21T06:09:13;100187.41;;;16.45;100.00
48652;BME280;34442;52.362;-1.302;2022-08-21T06:11:39;100190.16;;;16.50;100.00
48652;BME280;34442;52.362;-1.302;2022-08-21T06:14:05;100194.94;;;16.59;100.00
48652;BME280;34442;52.362;-1.302;2022-08-21T06:16:32;100191.16;;;16.60;100.00
48652;BME280;34442;52.362;-1.302;2022-08-21T06:18:58;100192.72;;;16.56;100.00
48652;BME280;34442;52.362;-1.302;2022-08-21T06:21:24;100185.16;;;16.58;100.00
48652;BME280;34442;52.362;-1.302;2022-08-21T06:23:50;100191.41;;;16.59;100.00
48652;BME280;34442;52.362;-1.302;2022-08-21T06:26:16;100185.16;;;16.58;100.00
48652;BME280;34442;52.362;-1.302;2022-08-21T06:28:42;100184.91;;;16.60;100.00
48652;BME280;34442;52.362;-1.302;2022-08-21T06:31:17;100189.00;;;16.62;100.00
48652;BME280;34442;52.362;-1.302;2022-08-21T06:33:43;100196.91;;;16.64;100.00
48652;BME280;34442;52.362;-1.302;2022-08-21T06:36:09;100195.59;;;16.67;100.00
48652;BME280;34442;52.362;-1.302;2022-08-21T06:38:37;100190.81;;;16.74;100.00
48652;BME280;34442;52.362;-1.302;2022-08-21T06:41:04;100196.31;;;16.79;100.00
48652;BME280;34442;52.362;-1.302;2022-08-21T06:43:30;100187.91;;;16.80;100.00
48652;BME280;34442;52.362;-1.302;2022-08-21T06:45:56;100178.19;;;16.84;100.00
48652;BME280;34442;52.362;-1.302;2022-08-21T06:48:23;100172.75;;;16.84;100.00
48652;BME280;34442;52.362;-1.302;2022-08-21T06:50:49;100169.28;;;16.89;100.00
48652;BME280;34442;52.362;-1.302;2022-08-21T06:53:18;100174.22;;;16.92;100.00
48652;BME280;34442;52.362;-1.302;2022-08-21T06:55:46;100175.56;;;16.95;100.00
48652;BME280;34442;52.362;-1.302;2022-08-21T06:58:13;100171.34;;;17.04;100.00
48652;BME280;34442;52.362;-1.302;2022-08-21T07:00:41;100180.69;;;17.13;100.00
48652;BME280;34442;52.362;-1.302;2022-08-21T07:03:07;100175.34;;;17.23;100.00
48652;BME280;34442;52.362;-1.302;2022-08-21T07:05:33;100173.25;;;17.30;100.00
48652;BME280;34442;52.362;-1.302;2022-08-21T07:07:59;100182.53;;;17.34;100.00
48652;BME280;34442;52.362;-1.302;2022-08-21T07:10:26;100170.59;;;17.35;100.00
48652;BME280;34442;52.362;-1.302;2022-08-21T07:12:52;100181.25;;;17.42;100.00
48652;BME280;34442;52.362;-1.302;2022-08-21T07:15:22;100186.44;;;17.44;100.00
48652;BME280;34442;52.362;-1.302;2022-08-21T07:17:48;100188.03;;;17.40;100.00
48652;BME280;34442;52.362;-1.302;2022-08-21T07:20:14;100188.91;;;17.45;100.00
48652;BME280;34442;52.362;-1.302;2022-08-21T07:22:40;100182.13;;;17.48;100.00
48652;BME280;34442;52.362;-1.302;2022-08-21T07:25:08;100184.59;;;17.49;100.00
48652;BME280;34442;52.362;-1.302;2022-08-21T07:27:34;100187.63;;;17.53;100.00
48652;BME280;34442;52.362;-1.302;2022-08-21T07:30:00;100181.06;;;17.49;100.00
48652;BME280;34442;52.362;-1.302;2022-08-21T07:32:26;100179.69;;;17.46;100.00
48652;BME280;34442;52.362;-1.302;2022-08-21T07:34:52;100178.91;;;17.51;100.00
48652;BME280;34442;52.362;-1.302;2022-08-21T07:37:21;100180.88;;;17.60;100.00
48652;BME280;34442;52.362;-1.302;2022-08-21T07:39:47;100170.84;;;17.61;100.00
48652;BME280;34442;52.362;-1.302;2022-08-21T07:42:15;100171.44;;;17.68;100.00
48652;BME280;34442;52.362;-1.302;2022-08-21T07:44:41;100172.38;;;17.79;100.00
48652;BME280;34442;52.362;-1.302;2022-08-21T07:47:07;100172.22;;;17.91;100.00
48652;BME280;34442;52.362;-1.302;2022-08-21T07:49:33;100182.13;;;18.07;100.00
48652;BME280;34442;52.362;-1.302;2022-08-21T07:51:59;100171.31;;;18.17;100.00
48652;BME280;34442;52.362;-1.302;2022-08-21T07:54:25;100176.00;;;18.27;100.00
48652;BME280;34442;52.362;-1.302;2022-08-21T07:56:52;100172.94;;;18.18;100.00
48652;BME280;34442;52.362;-1.302;2022-08-21T07:59:18;100177.22;;;18.09;100.00
48652;BME280;34442;52.362;-1.302;2022-08-21T08:01:44;100170.75;;;18.15;100.00
48652;BME280;34442;52.362;-1.302;2022-08-21T08:04:10;100177.84;;;18.16;100.00
48652;BME280;34442;52.362;-1.302;2022-08-21T08:06:36;100179.75;;;18.16;100.00
48652;BME280;34442;52.362;-1.302;2022-08-21T08:09:02;100183.56;;;18.15;100.00
48652;BME280;34442;52.362;-1.302;2022-08-21T08:11:30;100180.06;;;18.24;100.00
48652;BME280;34442;52.362;-1.302;2022-08-21T08:13:56;100188.28;;;18.34;100.00
48652;BME280;34442;52.362;-1.302;2022-08-21T08:16:23;100180.16;;;18.40;100.00
48652;BME280;34442;52.362;-1.302;2022-08-21T08:18:49;100181.34;;;18.59;100.00
48652;BME280;34442;52.362;-1.302;2022-08-21T08:21:17;100181.47;;;18.79;100.00
48652;BME280;34442;52.362;-1.302;2022-08-21T08:23:46;100189.44;;;18.91;100.00
48652;BME280;34442;52.362;-1.302;2022-08-21T08:26:13;100191.34;;;18.91;100.00
48652;BME280;34442;52.362;-1.302;2022-08-21T08:28:41;100192.97;;;18.92;100.00
48652;BME280;34442;52.362;-1.302;2022-08-21T08:31:07;100187.00;;;18.95;100.00
48652;BME280;34442;52.362;-1.302;2022-08-21T08:33:33;100185.88;;;18.80;100.00
48652;BME280;34442;52.362;-1.302;2022-08-21T08:35:59;100179.34;;;18.92;100.00
48652;BME280;34442;52.362;-1.302;2022-08-21T08:38:25;100182.09;;;18.97;100.00
48652;BME280;34442;52.362;-1.302;2022-08-21T08:43:28;100186.88;;;19.57;100.00
48652;BME280;34442;52.362;-1.302;2022-08-21T08:45:56;100185.81;;;19.69;100.00
48652;BME280;34442;52.362;-1.302;2022-08-21T08:51:15;100187.44;;;20.11;100.00
48652;BME280;34442;52.362;-1.302;2022-08-21T08:53:52;100185.00;;;20.24;100.00
48652;BME280;34442;52.362;-1.302;2022-08-21T08:56:22;100182.22;;;20.40;100.00
48652;BME280;34442;52.362;-1.302;2022-08-21T08:58:52;100185.50;;;20.37;100.00
48652;BME280;34442;52.362;-1.302;2022-08-21T09:01:19;100183.03;;;20.40;100.00
48652;BME280;34442;52.362;-1.302;2022-08-21T09:03:47;100181.66;;;20.48;100.00
48652;BME280;34442;52.362;-1.302;2022-08-21T09:09:18;100173.75;;;20.62;100.00
48652;BME280;34442;52.362;-1.302;2022-08-21T09:12:19;100167.13;;;20.78;100.00
48652;BME280;34442;52.362;-1.302;2022-08-21T09:15:24;100183.25;;;20.74;100.00
48652;BME280;34442;52.362;-1.302;2022-08-21T09:23:36;100185.09;;;20.89;100.00
48652;BME280;34442;52.362;-1.302;2022-08-21T09:26:18;100187.84;;;20.84;100.00
48652;BME280;34442;52.362;-1.302;2022-08-21T09:28:44;100187.38;;;20.67;100.00
48652;BME280;34442;52.362;-1.302;2022-08-21T09:31:22;100182.50;;;20.53;100.00
48652;BME280;34442;52.362;-1.302;2022-08-21T09:33:48;100183.88;;;20.51;100.00
48652;BME280;34442;52.362;-1.302;2022-08-21T09:36:41;100176.09;;;20.89;99.03
48652;BME280;34442;52.362;-1.302;2022-08-21T09:39:10;100179.38;;;20.80;100.00
48652;BME280;34442;52.362;-1.302;2022-08-21T09:41:37;100190.38;;;20.60;100.00
48652;BME280;34442;52.362;-1.302;2022-08-21T09:44:05;100190.88;;;20.77;100.00
48652;BME280;34442;52.362;-1.302;2022-08-21T09:46:33;100187.66;;;21.25;100.00
48652;BME280;34442;52.362;-1.302;2022-08-21T09:49:02;100177.53;;;21.70;98.82
48652;BME280;34442;52.362;-1.302;2022-08-21T09:51:34;100182.25;;;21.98;96.91
48652;BME280;34442;52.362;-1.302;2022-08-21T09:59:24;100175.06;;;21.68;97.75
48652;BME280;34442;52.362;-1.302;2022-08-21T10:01:52;100175.25;;;21.48;97.87
48652;BME280;34442;52.362;-1.302;2022-08-21T10:04:33;100181.00;;;21.80;94.74
48652;BME280;34442;52.362;-1.302;2022-08-21T10:07:10;100176.31;;;21.86;91.29
48652;BME280;34442;52.362;-1.302;2022-08-21T10:09:36;100178.72;;;21.59;97.51
48652;BME280;34442;52.362;-1.302;2022-08-21T10:17:11;100178.16;;;21.62;93.63
48652;BME280;34442;52.362;-1.302;2022-08-21T10:20:04;100174.06;;;21.59;86.55
48652;BME280;34442;52.362;-1.302;2022-08-21T10:25:18;100170.09;;;21.41;91.17
48652;BME280;34442;52.362;-1.302;2022-08-21T10:27:54;100174.19;;;21.39;95.72
48652;BME280;34442;52.362;-1.302;2022-08-21T10:30:46;100167.44;;;21.21;86.58
48652;BME280;34442;52.362;-1.302;2022-08-21T10:33:32;100169.44;;;21.05;89.45
48652;BME280;34442;52.362;-1.302;2022-08-21T10:36:14;100166.63;;;21.20;93.73
48652;BME280;34442;52.362;-1.302;2022-08-21T10:39:13;100175.84;;;21.35;87.03
48652;BME280;34442;52.362;-1.302;2022-08-21T10:42:14;100182.66;;;21.76;86.66
48652;BME280;34442;52.362;-1.302;2022-08-21T10:47:37;100175.09;;;22.32;88.67
48652;BME280;34442;52.362;-1.302;2022-08-21T10:55:41;100172.22;;;22.90;84.17
48652;BME280;34442;52.362;-1.302;2022-08-21T11:01:32;100182.22;;;22.33;89.59
48652;BME280;34442;52.362;-1.302;2022-08-21T11:04:20;100185.38;;;22.45;87.02
48652;BME280;34442;52.362;-1.302;2022-08-21T11:06:51;100181.81;;;22.44;91.34
48652;BME280;34442;52.362;-1.302;2022-08-21T11:09:21;100188.78;;;22.32;91.70
48652;BME280;34442;52.362;-1.302;2022-08-21T11:11:57;100182.66;;;22.16;90.72
48652;BME280;34442;52.362;-1.302;2022-08-21T11:17:41;100182.72;;;21.71;90.05
48652;BME280;34442;52.362;-1.302;2022-08-21T11:20:15;100185.84;;;21.54;94.72
48652;BME280;34442;52.362;-1.302;2022-08-21T11:22:54;100180.72;;;21.48;94.80
48652;BME280;34442;52.362;-1.302;2022-08-21T11:25:27;100184.94;;;21.64;93.45
48652;BME280;34442;52.362;-1.302;2022-08-21T11:27:59;100187.66;;;22.03;92.10
48652;BME280;34442;52.362;-1.302;2022-08-21T11:30:39;100178.16;;;22.25;89.76
48652;BME280;34442;52.362;-1.302;2022-08-21T11:33:35;100176.34;;;22.15;86.18
48652;BME280;34442;52.362;-1.302;2022-08-21T11:36:54;100176.34;;;22.15;83.92
48652;BME280;34442;52.362;-1.302;2022-08-21T11:50:18;100183.81;;;22.39;85.38
48652;BME280;34442;52.362;-1.302;2022-08-21T11:55:43;100179.31;;;22.96;84.74
48652;BME280;34442;52.362;-1.302;2022-08-21T11:58:25;100180.91;;;23.21;80.79
48652;BME280;34442;52.362;-1.302;2022-08-21T12:01:19;100180.91;;;23.21;83.72
48652;BME280;34442;52.362;-1.302;2022-08-21T12:04:30;100182.25;;;23.42;77.22
48652;BME280;34442;52.362;-1.302;2022-08-21T12:07:14;100177.84;;;23.60;75.46
48652;BME280;34442;52.362;-1.302;2022-08-21T12:09:55;100186.31;;;23.26;77.19
48652;BME280;34442;52.362;-1.302;2022-08-21T12:18:07;100184.78;;;22.96;76.33
48652;BME280;34442;52.362;-1.302;2022-08-21T12:24:35;100178.44;;;22.76;75.30
48652;BME280;34442;52.362;-1.302;2022-08-21T12:26:48;100176.81;;;23.18;83.62
48652;BME280;34442;52.362;-1.302;2022-08-21T12:29:26;100177.03;;;23.03;78.76
48652;BME280;34442;52.362;-1.302;2022-08-21T12:34:35;100180.53;;;23.09;79.49
48652;BME280;34442;52.362;-1.302;2022-08-21T12:39:59;100159.91;;;22.87;83.70
48652;BME280;34442;52.362;-1.302;2022-08-21T12:42:47;100167.88;;;22.89;76.62
48652;BME280;34442;52.362;-1.302;2022-08-21T12:45:26;100173.06;;;22.66;81.38
48652;BME280;34442;52.362;-1.302;2022-08-21T12:48:02;100170.53;;;22.51;82.30
48652;BME280;34442;52.362;-1.302;2022-08-21T12:50:37;100170.72;;;22.54;82.98
48652;BME280;34442;52.362;-1.302;2022-08-21T12:53:21;100162.03;;;22.95;81.89
48652;BME280;34442;52.362;-1.302;2022-08-21T12:55:49;100166.16;;;23.36;73.04
48652;BME280;34442;52.362;-1.302;2022-08-21T12:58:20;100161.47;;;23.55;79.48
48652;BME280;34442;52.362;-1.302;2022-08-21T13:01:01;100173.75;;;23.58;72.50
48652;BME280;34442;52.362;-1.302;2022-08-21T13:03:29;100166.53;;;23.67;79.15
48652;BME280;34442;52.362;-1.302;2022-08-21T13:05:55;100169.00;;;23.82;78.86
48652;BME280;34442;52.362;-1.302;2022-08-21T13:08:22;100166.06;;;23.79;78.46
48652;BME280;34442;52.362;-1.302;2022-08-21T13:10:58;100166.06;;;23.79;74.65
48652;BME280;34442;52.362;-1.302;2022-08-21T13:13:26;100166.06;;;23.79;79.66
48652;BME280;34442;52.362;-1.302;2022-08-21T13:16:02;100163.22;;;23.84;77.86
48652;BME280;34442;52.362;-1.302;2022-08-21T13:18:32;100165.66;;;23.85;78.90
48652;BME280;34442;52.362;-1.302;2022-08-21T13:21:12;100171.25;;;23.80;75.15
48652;BME280;34442;52.362;-1.302;2022-08-21T13:23:40;100167.69;;;23.61;80.58
48652;BME280;34442;52.362;-1.302;2022-08-21T13:26:17;100171.19;;;23.28;77.22
48652;BME280;34442;52.362;-1.302;2022-08-21T13:28:43;100160.22;;;23.10;82.32
48652;BME280;34442;52.362;-1.302;2022-08-21T13:31:17;100168.94;;;23.12;81.60
48652;BME280;34442;52.362;-1.302;2022-08-21T13:33:44;100170.81;;;23.16;82.49
48652;BME280;34442;52.362;-1.302;2022-08-21T13:36:14;100172.31;;;23.09;81.95
48652;BME280;34442;52.362;-1.302;2022-08-21T13:38:44;100171.09;;;23.15;82.43
48652;BME280;34442;52.362;-1.302;2022-08-21T13:41:20;100176.59;;;23.15;80.06
48652;BME280;34442;52.362;-1.302;2022-08-21T13:43:59;100171.09;;;23.15;76.26
48652;BME280;34442;52.362;-1.302;2022-08-21T13:46:29;100167.97;;;23.02;81.56
48652;BME280;34442;52.362;-1.302;2022-08-21T13:48:56;100168.94;;;22.93;82.27
48652;BME280;34442;52.362;-1.302;2022-08-21T13:51:24;100157.41;;;23.15;81.50
48652;BME280;34442;52.362;-1.302;2022-08-21T13:53:52;100154.84;;;23.56;80.15
48652;BME280;34442;52.362;-1.302;2022-08-21T13:56:40;100166.13;;;23.73;77.79